• Join FlightAware (Why Join?)
  • Login
  • US Flag 
01:44PM EDT


 

Airport Tracker/Info


-or-


 

Live Flight TrackerFlight Track Log ✈ N102WY ✈ 09-May-2013 ✈ KLAR - KCPR

Flight Track Log - Related Links

Times and Time Zones

All times are in EDT time to prevent confusion due to time zone crossing. See the N102WY flight status page for this flight to view local times or setup timezone preferences in your user account.

Time Position Orientation Groundspeed Altitude Reporting Facility
EDT Latitude Longitude Course Direction KTS MPH feet Rate Location/Type
05:33PM 41.4364 -105.5419 48° Northeast 225 259 16,500  Level Denver Center
05:34PM 41.4567 -105.4558 73° East 246 283 16,500 1,080 Level Denver Center
05:35PM 41.5053 -105.3614 55° Northeast 286 329 18,800 2,760 Climbing Denver Center
05:36PM 41.5756 -105.3900 343° North 284 327 22,300 2,400 Climbing Denver Center
05:37PM 41.6461 -105.4481 328° Northwest 305 351 23,800 780 Climbing Denver Center
05:38PM 41.7461 -105.5258 330° Northwest 362 417 24,000 60 Climbing Denver Center
05:39PM 41.8303 -105.5917 330° Northwest 363 418 24,000  Level Denver Center
05:40PM 41.9258 -105.6731 328° Northwest 364 419 24,000  Level Denver Center
05:41PM 41.9975 -105.7569 319° Northwest 361 415 24,000  Level Denver Center
05:42PM 42.0753 -105.8658 314° West 360 414 24,000  Level Denver Center
05:43PM 42.1536 -105.9294 329° Northwest 347 399 24,000 -60 Level Denver Center
05:44PM 42.2450 -105.9925 333° Northwest 332 382 23,900 -960 Descending Denver Center
05:45PM 42.3219 -106.0467 333° Northwest 326 375 22,100 -2,280 Descending Denver Center
05:46PM 42.4108 -106.1111 332° Northwest 325 374 19,200 -2,580 Descending Denver Center
05:48PM 42.4842 -106.1628 333° Northwest 314 361 16,800 -2,280 Descending Denver Center
05:49PM 42.5686 -106.1786 352° North 287 330 14,600 -2,160 Descending Denver Center
05:50PM 42.6392 -106.1797 359° North 273 314 12,400 -1,920 Descending Denver Center
05:51PM 42.7011 -106.2258 331° Northwest 277 319 10,700 -1,500 Descending Denver Center
05:52PM 42.7553 -106.3067 312° West 266 306 9,400 -1,080 Descending Denver Center
05:53PM 42.7972 -106.3814 307° West 262 302 8,500 -900 Descending Denver Center
05:55PM 42.9000 -106.4500 North  Level FlightAware Approximate
06:02PM 42.9080 -106.4644 North  Level Estimated
06:03PM 42.9080 -106.4644 North  Level Estimated
06:04PM 42.9080 -106.4644 North  Level Estimated